Terminal Aerodrome Forecast
Issued by NWS

Home | Current Version | Previous Version | Text Only | Print | Product List | Glossary On
Versions: 1 2 3 4 5 6 7 8 9 10 11 12
000
FTUS44 KLIX 240500
TAFGPT
TAF
KGPT 240530Z 2406/2506 01004KT P6SM SCT150
     FM241400 36007KT P6SM SKC=

USA.gov is the U.S. government's official web portal to all federal, state and local government web resources and services.